Seikkailu — OJ2717 — position and weather

sailwx.info

Track history (hours):
 
Tides and Currents Weather Stations Pressure Air Temp Water Temp Dewpoint Dewpoint Depression Visibility Wind Speed Wind Dir Waves Ship Positions

Seikkailu

Last reported at 2014-Jul-24 11:26 UTC. Time now 2014-Jul-25 13:41 UTC.
Position N 60°16' E 026°00'.

Length 10 m.

Type: Pleasure craft. MMSI: 230120280.

Date/timePositionNaut miles runAvg speedWind from/ knotsBaromVisibWave heightAir tempDewpointWater temp
2014-Jul-24 11:26N 60°16' E 026°00'13 0.6
2014-Jul-23 14:22N 60°21' E 026°23'3 4.0
2014-Jul-23 13:33N 60°19' E 026°28'4 4.4
2014-Jul-23 12:33N 60°20' E 026°37'5 4.8
2014-Jul-23 11:33N 60°20' E 026°47'0 0.2
2014-Jul-23 10:32N 60°21' E 026°47'0 0.0
2014-Jul-23 09:32N 60°21' E 026°47'0 0.0
2014-Jul-23 08:23N 60°21' E 026°47'0 0.0
2014-Jul-23 06:05N 60°21' E 026°47'0 0.0
2014-Jul-23 05:05N 60°21' E 026°47'0 0.0
2014-Jul-23 04:32N 60°21' E 026°47'0 0.0
2014-Jul-23 03:29N 60°21' E 026°47'0 0.0
2014-Jul-23 02:26N 60°21' E 026°47'0 0.0
2014-Jul-23 01:23N 60°21' E 026°47'0 0.0
2014-Jul-23 00:32N 60°21' E 026°47'0 0.0
2014-Jul-22 23:29N 60°21' E 026°47'0 0.0
2014-Jul-22 22:29N 60°21' E 026°47'0 0.0
2014-Jul-22 21:20N 60°21' E 026°47'0 0.0
2014-Jul-22 20:20N 60°21' E 026°47'0 0.0
2014-Jul-22 19:32N 60°21' E 026°47'0 0.0
2014-Jul-22 17:23N 60°21' E 026°47'0 0.0
2014-Jul-22 16:11N 60°21' E 026°47'0 0.0
2014-Jul-22 15:14N 60°21' E 026°47'0 0.0
2014-Jul-22 14:32N 60°21' E 026°47'0 0.0
2014-Jul-22 13:32N 60°21' E 026°47'0 0.3
2014-Jul-22 12:34N 60°21' E 026°47'4 4.4
2014-Jul-22 11:33N 60°20' E 026°56'3 2.7
2014-Jul-22 10:33N 60°21' E 027°02'7 0.3
2014-Jul-21 13:33N 60°27' E 027°04'  
Track history (hours):
 
Tides and Currents Weather Stations Pressure Air Temp Water Temp Dewpoint Dewpoint Depression Visibility Wind Speed Wind Dir Waves Ship Positions

Seikkailu

Last reported at 2014-Jul-24 11:26 UTC. Time now 2014-Jul-25 13:41 UTC.
Position N 60°16' E 026°00'.

Length 10 m.

Type: Pleasure craft. MMSI: 230120280.

Date/timePositionNaut miles runAvg speedWind from/ knotsBaromVisibWave heightAir tempDewpointWater temp
2014-Jul-24 11:26N 60°16' E 026°00'13 0.6
2014-Jul-23 14:22N 60°21' E 026°23'3 4.0
2014-Jul-23 13:33N 60°19' E 026°28'4 4.4
2014-Jul-23 12:33N 60°20' E 026°37'5 4.8
2014-Jul-23 11:33N 60°20' E 026°47'0 0.2
2014-Jul-23 10:32N 60°21' E 026°47'0 0.0
2014-Jul-23 09:32N 60°21' E 026°47'0 0.0
2014-Jul-23 08:23N 60°21' E 026°47'0 0.0
2014-Jul-23 06:05N 60°21' E 026°47'0 0.0
2014-Jul-23 05:05N 60°21' E 026°47'0 0.0
2014-Jul-23 04:32N 60°21' E 026°47'0 0.0
2014-Jul-23 03:29N 60°21' E 026°47'0 0.0
2014-Jul-23 02:26N 60°21' E 026°47'0 0.0
2014-Jul-23 01:23N 60°21' E 026°47'0 0.0
2014-Jul-23 00:32N 60°21' E 026°47'0 0.0
2014-Jul-22 23:29N 60°21' E 026°47'0 0.0
2014-Jul-22 22:29N 60°21' E 026°47'0 0.0
2014-Jul-22 21:20N 60°21' E 026°47'0 0.0
2014-Jul-22 20:20N 60°21' E 026°47'0 0.0
2014-Jul-22 19:32N 60°21' E 026°47'0 0.0
2014-Jul-22 17:23N 60°21' E 026°47'0 0.0
2014-Jul-22 16:11N 60°21' E 026°47'0 0.0
2014-Jul-22 15:14N 60°21' E 026°47'0 0.0
2014-Jul-22 14:32N 60°21' E 026°47'0 0.0
2014-Jul-22 13:32N 60°21' E 026°47'0 0.3
2014-Jul-22 12:34N 60°21' E 026°47'4 4.4
2014-Jul-22 11:33N 60°20' E 026°56'3 2.7
2014-Jul-22 10:33N 60°21' E 027°02'7 0.3
2014-Jul-21 13:33N 60°27' E 027°04'  

Dump ship's entire track history